createdAt,value
2022-08-10T00:02:00.488Z,18.29
2022-08-10T00:05:03.978Z,18.26
2022-08-10T00:08:06.878Z,18.23
2022-08-10T00:11:15.324Z,18.20
2022-08-10T00:14:19.786Z,18.17
2022-08-10T00:17:22.804Z,18.14
2022-08-10T00:20:25.878Z,18.13
2022-08-10T00:23:28.750Z,18.12
2022-08-10T00:27:52.895Z,18.10
2022-08-10T00:29:56.119Z,18.07
2022-08-10T00:32:58.967Z,18.05
2022-08-10T00:36:01.980Z,18.03
2022-08-10T00:39:04.938Z,18.00
2022-08-10T00:42:10.160Z,17.98
2022-08-10T00:45:13.466Z,17.96
2022-08-10T00:48:16.400Z,17.93
2022-08-10T00:51:19.412Z,17.91
2022-08-10T00:54:26.618Z,17.89
2022-08-10T00:57:30.396Z,17.88
2022-08-10T01:00:33.264Z,17.86
2022-08-10T01:04:43.593Z,17.84
2022-08-10T01:07:25.499Z,17.82
2022-08-10T01:10:48.808Z,17.79
2022-08-10T01:14:07.855Z,17.77
2022-08-10T01:17:15.437Z,17.76
2022-08-10T01:20:30.978Z,17.72
2022-08-10T01:23:53.993Z,17.71
2022-08-10T01:27:18.607Z,17.70
2022-08-10T01:30:24.422Z,17.68
2022-08-10T01:33:57.879Z,17.67
2022-08-10T01:37:14.581Z,17.66
2022-08-10T01:40:23.110Z,17.63
2022-08-10T01:43:29.741Z,17.61
2022-08-10T01:46:35.028Z,17.58
2022-08-10T01:49:38.252Z,17.54
2022-08-10T01:52:43.176Z,17.50
2022-08-10T01:55:50.027Z,17.48
2022-08-10T01:58:58.669Z,17.44
2022-08-10T02:02:05.427Z,17.42
2022-08-10T02:05:10.426Z,17.39
2022-08-10T02:08:16.396Z,17.39
2022-08-10T02:11:21.715Z,17.36
2022-08-10T02:14:34.893Z,17.34
2022-08-10T02:17:59.065Z,17.30
2022-08-10T02:21:08.309Z,17.28
2022-08-10T02:24:13.852Z,17.25
2022-08-10T02:27:19.283Z,17.22
2022-08-10T02:30:23.141Z,17.19
2022-08-10T02:33:27.809Z,17.17
2022-08-10T02:36:34.299Z,17.13
2022-08-10T02:39:37.472Z,17.11
2022-08-10T02:45:19.721Z,17.08
2022-08-10T02:46:22.516Z,17.06
2022-08-10T02:49:35.543Z,17.05
2022-08-10T02:52:46.619Z,17.03
2022-08-10T02:56:10.128Z,17.03
2022-08-10T02:59:28.001Z,17.01
2022-08-10T03:02:49.802Z,16.99
2022-08-10T03:06:01.459Z,16.96
2022-08-10T03:09:07.825Z,16.95
2022-08-10T03:12:35.426Z,16.93
2022-08-10T03:15:38.804Z,16.90
2022-08-10T03:18:43.394Z,16.89
2022-08-10T03:21:49.076Z,16.88
2022-08-10T03:24:54.318Z,16.86
2022-08-10T03:27:58.013Z,16.85
2022-08-10T03:31:02.092Z,16.84
2022-08-10T03:34:05.984Z,16.83
2022-08-10T03:37:28.944Z,16.82
2022-08-10T03:40:45.681Z,16.80
2022-08-10T03:43:50.258Z,16.80
2022-08-10T03:46:54.393Z,16.80
2022-08-10T03:49:59.324Z,16.81
2022-08-10T03:54:02.485Z,16.81
2022-08-10T03:56:46.086Z,16.81
2022-08-10T03:59:50.047Z,16.80
2022-08-10T04:02:54.214Z,16.81
2022-08-10T04:05:58.006Z,16.80
2022-08-10T04:09:02.488Z,16.79
2022-08-10T04:12:06.504Z,16.80
2022-08-10T04:15:09.815Z,16.80
2022-08-10T04:18:12.708Z,16.80
2022-08-10T04:21:19.121Z,16.81
2022-08-10T04:24:29.757Z,16.83
2022-08-10T04:27:36.152Z,16.84
2022-08-10T04:30:40.920Z,16.85
2022-08-10T04:33:48.093Z,16.86
2022-08-10T04:36:54.403Z,16.87
2022-08-10T04:39:57.771Z,16.88
2022-08-10T04:43:12.283Z,16.91
2022-08-10T04:46:56.061Z,16.92
2022-08-10T04:49:56.297Z,16.95
2022-08-10T04:52:59.833Z,16.99
2022-08-10T04:56:02.761Z,17.03
2022-08-10T04:59:07.837Z,17.07
2022-08-10T05:02:28.933Z,17.14
2022-08-10T05:05:34.585Z,17.21
2022-08-10T05:08:37.546Z,17.28
2022-08-10T05:11:40.542Z,17.36
2022-08-10T05:14:43.635Z,17.44
2022-08-10T05:18:06.860Z,17.52
2022-08-10T05:21:09.771Z,17.62
2022-08-10T05:24:12.729Z,17.70
2022-08-10T05:27:15.572Z,17.80
2022-08-10T05:30:20.803Z,17.91
2022-08-10T05:33:23.711Z,18.02
2022-08-10T05:36:27.543Z,18.16
2022-08-10T05:39:32.265Z,18.28
2022-08-10T05:42:35.850Z,18.42
2022-08-10T05:46:17.902Z,18.57
2022-08-10T05:49:02.280Z,18.72
2022-08-10T05:52:05.643Z,18.85
2022-08-10T05:55:09.328Z,18.98
2022-08-10T05:58:12.524Z,19.10
2022-08-10T06:01:18.918Z,19.23
2022-08-10T06:04:30.653Z,19.36
2022-08-10T06:07:37.086Z,19.49
2022-08-10T06:12:16.537Z,19.61
2022-08-10T06:14:28.517Z,19.74
2022-08-10T06:17:32.363Z,19.86
2022-08-10T06:20:36.333Z,19.96
2022-08-10T06:23:40.055Z,20.08
2022-08-10T06:26:44.851Z,20.19
2022-08-10T06:29:49.516Z,20.32
2022-08-10T06:32:55.724Z,20.43
2022-08-10T06:36:00.784Z,20.53
2022-08-10T06:39:29.946Z,20.65
2022-08-10T06:42:32.400Z,20.78
2022-08-10T06:45:44.161Z,20.90
2022-08-10T06:48:52.952Z,21.02
2022-08-10T06:51:57.794Z,21.14
2022-08-10T06:55:05.602Z,21.27
2022-08-10T06:58:14.447Z,21.37
2022-08-10T07:01:22.846Z,21.52
2022-08-10T07:04:32.404Z,21.66
2022-08-10T07:07:41.242Z,21.80
2022-08-10T07:10:48.023Z,21.95
2022-08-10T07:14:16.917Z,22.09
2022-08-10T07:17:19.484Z,22.25
2022-08-10T07:20:24.060Z,22.38
2022-08-10T07:23:56.869Z,22.49
2022-08-10T07:26:54.922Z,22.64
2022-08-10T07:30:00.317Z,22.76
2022-08-10T07:33:06.235Z,22.92
2022-08-10T07:36:11.327Z,23.06
2022-08-10T07:39:17.156Z,23.23
2022-08-10T07:42:45.898Z,23.40
2022-08-10T07:45:50.529Z,23.52
2022-08-10T07:49:16.740Z,23.68
2022-08-10T07:52:23.777Z,23.86
2022-08-10T07:56:05.147Z,24.01
2022-08-10T07:58:55.618Z,24.20
2022-08-10T08:02:01.202Z,24.35
2022-08-10T08:05:09.957Z,24.45
2022-08-10T08:08:15.485Z,24.59
2022-08-10T08:11:25.701Z,24.75
2022-08-10T08:14:31.395Z,24.90
2022-08-10T08:17:36.466Z,25.01
2022-08-10T08:20:41.271Z,25.14
2022-08-10T08:24:10.688Z,25.26
2022-08-10T08:27:17.596Z,25.39
2022-08-10T08:30:27.789Z,25.37
2022-08-10T08:33:41.587Z,25.39
2022-08-10T08:36:47.666Z,25.21
2022-08-10T08:39:50.946Z,25.15
2022-08-10T08:43:16.508Z,25.18
2022-08-10T08:46:58.788Z,25.30
2022-08-10T08:50:10.203Z,25.09
2022-08-10T08:54:02.314Z,25.04
2022-08-10T08:57:46.348Z,25.18
2022-08-10T09:00:56.936Z,25.34
2022-08-10T09:04:41.030Z,25.16
2022-08-10T09:08:06.201Z,24.84
2022-08-10T09:11:41.463Z,24.50
2022-08-10T09:15:02.600Z,24.22
2022-08-10T09:18:05.532Z,24.20
2022-08-10T09:21:28.161Z,24.20
2022-08-10T09:24:58.733Z,24.59
2022-08-10T09:28:09.943Z,25.00
2022-08-10T09:31:28.867Z,25.36
2022-08-10T09:36:20.690Z,25.35
2022-08-10T09:38:54.597Z,25.10
2022-08-10T09:43:02.251Z,24.84
2022-08-10T09:46:20.269Z,24.69
2022-08-10T09:49:59.717Z,24.73
2022-08-10T09:53:12.996Z,24.51
2022-08-10T09:56:29.005Z,24.35
2022-08-10T10:00:01.239Z,24.49
2022-08-10T10:03:26.365Z,24.90
2022-08-10T10:06:54.953Z,25.21
2022-08-10T10:10:18.892Z,25.23
2022-08-10T10:14:10.465Z,25.09
2022-08-10T10:17:27.191Z,25.35
2022-08-10T10:20:55.742Z,25.56
2022-08-10T10:24:48.189Z,25.87
2022-08-10T10:28:01.868Z,26.23
2022-08-10T10:31:16.603Z,26.51
2022-08-10T10:34:46.109Z,26.76
2022-08-10T10:38:10.166Z,27.00
2022-08-10T10:41:16.000Z,27.24
2022-08-10T10:44:42.133Z,27.44
2022-08-10T10:48:02.796Z,27.64
2022-08-10T10:51:25.625Z,27.77
2022-08-10T10:54:40.642Z,27.65
2022-08-10T10:58:24.255Z,27.49
2022-08-10T11:02:12.580Z,27.29
2022-08-10T11:05:23.231Z,27.41
2022-08-10T11:08:30.952Z,27.58
2022-08-10T11:12:01.646Z,27.76
2022-08-10T11:15:24.162Z,27.89
2022-08-10T11:18:39.953Z,27.80
2022-08-10T11:21:46.055Z,27.46
2022-08-10T11:24:57.289Z,27.48
2022-08-10T11:28:09.266Z,27.67
2022-08-10T11:31:24.370Z,27.86
2022-08-10T11:35:11.977Z,28.06
2022-08-10T11:39:04.098Z,28.09
2022-08-10T11:42:26.625Z,28.16
2022-08-10T11:45:51.569Z,28.29
2022-08-10T11:49:21.539Z,28.45
2022-08-10T11:52:51.914Z,28.58
2022-08-10T11:55:57.335Z,28.72
2022-08-10T11:59:20.005Z,28.71
2022-08-10T12:02:33.898Z,28.29
2022-08-10T12:05:51.770Z,27.84
2022-08-10T12:10:10.582Z,27.39
2022-08-10T12:12:23.750Z,27.24
2022-08-10T12:15:34.527Z,27.38
2022-08-10T12:18:50.711Z,27.59
2022-08-10T12:22:05.855Z,27.51
2022-08-10T12:25:55.901Z,27.15
2022-08-10T12:29:10.780Z,26.77
2022-08-10T12:32:25.375Z,26.45
2022-08-10T12:35:56.217Z,26.50
2022-08-10T12:39:21.653Z,26.75
2022-08-10T12:42:40.548Z,26.97
2022-08-10T12:46:15.865Z,27.20
2022-08-10T12:49:32.322Z,27.41
2022-08-10T12:52:44.848Z,27.60
2022-08-10T12:55:50.057Z,27.76
2022-08-10T12:58:59.371Z,27.87
2022-08-10T13:02:10.250Z,27.67
2022-08-10T13:05:15.182Z,27.38
2022-08-10T13:08:40.312Z,27.18
2022-08-10T13:12:35.929Z,27.19
2022-08-10T13:15:49.151Z,27.23
2022-08-10T13:18:52.918Z,27.31
2022-08-10T13:21:58.010Z,27.36
2022-08-10T13:25:03.992Z,27.41
2022-08-10T13:28:35.532Z,27.23
2022-08-10T13:32:04.415Z,26.98
2022-08-10T13:35:03.197Z,26.74
2022-08-10T13:38:09.094Z,26.49
2022-08-10T13:41:12.807Z,26.33
2022-08-10T13:44:27.915Z,26.38
2022-08-10T13:47:49.022Z,26.43
2022-08-10T13:51:00.355Z,26.52
2022-08-10T13:54:05.719Z,26.61
2022-08-10T13:57:11.653Z,26.71
2022-08-10T14:00:36.289Z,26.79
2022-08-10T14:03:41.536Z,26.88
2022-08-10T14:06:53.099Z,26.98
2022-08-10T14:10:08.106Z,27.07
2022-08-10T14:13:13.668Z,27.15
2022-08-10T14:16:18.674Z,27.24
2022-08-10T14:19:25.939Z,27.30
2022-08-10T14:22:43.329Z,27.37
2022-08-10T14:25:51.108Z,27.41
2022-08-10T14:29:19.648Z,27.42
2022-08-10T14:32:27.290Z,27.36
2022-08-10T14:36:23.338Z,27.19
2022-08-10T14:39:02.416Z,27.06
2022-08-10T14:42:22.636Z,26.89
2022-08-10T14:45:34.313Z,26.63
2022-08-10T14:48:42.444Z,26.38
2022-08-10T14:51:46.942Z,26.15
2022-08-10T14:54:51.612Z,25.93
2022-08-10T14:58:19.132Z,25.79
2022-08-10T15:01:22.705Z,25.68
2022-08-10T15:04:28.625Z,25.60
2022-08-10T15:07:33.861Z,25.49
2022-08-10T15:10:38.511Z,25.34
2022-08-10T15:14:29.224Z,25.25
2022-08-10T15:17:23.574Z,25.15
2022-08-10T15:20:31.568Z,25.06
2022-08-10T15:24:05.714Z,24.99
2022-08-10T15:27:00.118Z,24.91
2022-08-10T15:30:05.172Z,24.84
2022-08-10T15:33:57.742Z,24.78
2022-08-10T15:37:36.566Z,24.71
2022-08-10T15:40:51.848Z,24.65
2022-08-10T15:43:55.256Z,24.61
2022-08-10T15:47:02.613Z,24.55
2022-08-10T15:50:21.779Z,24.50
2022-08-10T15:53:49.030Z,24.45
2022-08-10T15:56:59.698Z,24.40
2022-08-10T16:00:09.066Z,24.34
2022-08-10T16:03:23.486Z,24.28
2022-08-10T16:06:43.483Z,24.23
2022-08-10T16:10:24.091Z,24.18
2022-08-10T16:14:00.460Z,24.13
2022-08-10T16:16:41.456Z,24.09
2022-08-10T16:19:52.315Z,24.06
2022-08-10T16:22:58.738Z,24.04
2022-08-10T16:26:14.960Z,23.99
2022-08-10T16:29:24.765Z,23.97
2022-08-10T16:32:30.032Z,23.93
2022-08-10T16:35:35.324Z,23.90
2022-08-10T16:38:42.485Z,23.86
2022-08-10T16:42:03.979Z,23.83
2022-08-10T16:45:11.127Z,23.80
2022-08-10T16:48:16.281Z,23.75
2022-08-10T16:51:41.240Z,23.72
2022-08-10T16:54:50.266Z,23.68
2022-08-10T16:57:56.878Z,23.66
2022-08-10T17:01:04.544Z,23.62
2022-08-10T17:04:10.265Z,23.60
2022-08-10T17:07:17.050Z,23.58
2022-08-10T17:10:21.480Z,23.55
2022-08-10T17:13:27.768Z,23.53
2022-08-10T17:16:41.690Z,23.49
2022-08-10T17:19:45.520Z,23.46
2022-08-10T17:22:54.738Z,23.42
2022-08-10T17:26:02.942Z,23.37
2022-08-10T17:29:57.755Z,23.33
2022-08-10T17:32:44.962Z,23.26
2022-08-10T17:35:50.714Z,23.22
2022-08-10T17:38:55.961Z,23.17
2022-08-10T17:42:01.079Z,23.13
2022-08-10T17:45:05.537Z,23.09
2022-08-10T17:48:09.721Z,23.05
2022-08-10T17:51:15.437Z,23.02
2022-08-10T17:54:24.271Z,22.96
2022-08-10T17:57:28.122Z,22.93
2022-08-10T18:00:33.320Z,22.88
2022-08-10T18:03:40.986Z,22.81
2022-08-10T18:06:44.516Z,22.76
2022-08-10T18:09:55.048Z,22.70
2022-08-10T18:13:00.773Z,22.63
2022-08-10T18:16:05.286Z,22.56
2022-08-10T18:19:11.680Z,22.48
2022-08-10T18:22:16.847Z,22.39
2022-08-10T18:25:27.011Z,22.31
2022-08-10T18:28:32.069Z,22.22
2022-08-10T18:31:37.360Z,22.16
2022-08-10T18:34:46.465Z,22.08
2022-08-10T18:37:51.027Z,22.01
2022-08-10T18:41:00.493Z,21.94
2022-08-10T18:44:13.862Z,21.83
2022-08-10T18:47:28.071Z,21.75
2022-08-10T18:50:35.201Z,21.68
2022-08-10T18:53:50.607Z,21.62
2022-08-10T18:56:59.099Z,21.55
2022-08-10T19:00:08.082Z,21.49
2022-08-10T19:03:35.420Z,21.43
2022-08-10T19:07:00.169Z,21.35
2022-08-10T19:10:14.208Z,21.29
2022-08-10T19:13:30.440Z,21.22
2022-08-10T19:16:36.439Z,21.16
2022-08-10T19:20:04.194Z,21.10
2022-08-10T19:23:27.288Z,21.04
2022-08-10T19:26:56.982Z,20.98
2022-08-10T19:30:13.314Z,20.92
2022-08-10T19:33:35.597Z,20.88
2022-08-10T19:36:55.008Z,20.83
2022-08-10T19:40:44.169Z,20.79
2022-08-10T19:44:00.251Z,20.74
2022-08-10T19:47:41.013Z,20.72
2022-08-10T19:50:48.440Z,20.68
2022-08-10T19:54:06.497Z,20.65
2022-08-10T19:57:12.832Z,20.62
2022-08-10T20:00:23.019Z,20.62
2022-08-10T20:03:51.831Z,20.61
2022-08-10T20:06:57.575Z,20.60
2022-08-10T20:10:23.445Z,20.61
2022-08-10T20:13:32.728Z,20.62
2022-08-10T20:16:39.792Z,20.63
2022-08-10T20:20:03.575Z,20.64
2022-08-10T20:23:19.198Z,20.65
2022-08-10T20:26:29.498Z,20.64
2022-08-10T20:29:58.585Z,20.64
2022-08-10T20:33:16.388Z,20.63
2022-08-10T20:36:56.739Z,20.63
2022-08-10T20:40:09.202Z,20.60
2022-08-10T20:43:40.995Z,20.58
2022-08-10T20:47:01.484Z,20.56
2022-08-10T20:50:35.773Z,20.52
2022-08-10T20:53:47.677Z,20.49
2022-08-10T20:57:53.647Z,20.45
2022-08-10T21:00:52.590Z,20.40
2022-08-10T21:04:39.510Z,20.34
2022-08-10T21:08:01.825Z,20.28
2022-08-10T21:11:32.487Z,20.23
2022-08-10T21:14:56.996Z,20.18
2022-08-10T21:18:20.628Z,20.13
2022-08-10T21:21:59.102Z,20.08
2022-08-10T21:25:06.593Z,20.03
2022-08-10T21:28:28.956Z,19.99
2022-08-10T21:31:50.836Z,19.94
2022-08-10T21:35:20.235Z,19.90
2022-08-10T21:39:10.411Z,19.85
2022-08-10T21:43:05.845Z,19.80
2022-08-10T21:46:55.076Z,19.75
2022-08-10T21:50:27.296Z,19.69
2022-08-10T21:53:56.613Z,19.63
2022-08-10T21:57:38.261Z,19.58
2022-08-10T22:01:12.109Z,19.54
2022-08-10T22:04:38.660Z,19.49
2022-08-10T22:08:07.940Z,19.46
2022-08-10T22:11:39.080Z,19.44
2022-08-10T22:15:07.319Z,19.40
2022-08-10T22:18:31.572Z,19.36
2022-08-10T22:22:27.610Z,19.33
2022-08-10T22:25:56.779Z,19.30
2022-08-10T22:31:27.655Z,19.26
2022-08-10T22:33:14.218Z,19.23
2022-08-10T22:36:52.117Z,19.17
2022-08-10T22:40:25.467Z,19.13
2022-08-10T22:43:50.747Z,19.09
2022-08-10T22:47:12.507Z,19.06
2022-08-10T22:50:20.984Z,19.02
2022-08-10T22:53:54.017Z,18.97
2022-08-10T22:57:15.880Z,18.94
2022-08-10T23:00:30.753Z,18.90
2022-08-10T23:03:46.009Z,18.87
2022-08-10T23:07:04.825Z,18.82
2022-08-10T23:10:10.752Z,18.79
2022-08-10T23:13:35.393Z,18.74
2022-08-10T23:17:07.611Z,18.71
2022-08-10T23:20:15.585Z,18.65
2022-08-10T23:23:23.493Z,18.61
2022-08-10T23:26:30.254Z,18.60
2022-08-10T23:29:35.569Z,18.57
2022-08-10T23:32:45.255Z,18.54
2022-08-10T23:36:30.535Z,18.51
2022-08-10T23:39:26.099Z,18.47
2022-08-10T23:42:39.881Z,18.44
2022-08-10T23:45:53.093Z,18.41
2022-08-10T23:49:00.702Z,18.38
2022-08-10T23:52:10.957Z,18.36
2022-08-10T23:55:30.970Z,18.34
2022-08-10T23:58:48.795Z,18.31
